Terminal Aerodrome Forecast
Issued by NWS

Home | Current Version | Previous Version | Text Only | Print | Product List | Glossary On
Versions: 1 2 3 4 5 6 7 8 9 10 11 12 13 14 15 16 17 18 19 20 21 22 23 24 25
000
FTUS43 KLOT 101742
TAFDPA
TAF
KDPA 101742Z 1018/1118 25007KT P6SM SCT020 BKN070
     FM102100 23007KT 4SM -SN OVC020
     FM102300 20007KT 1 1/2SM -SN SCT010 OVC020
     FM110000 17007KT 3/4SM -SN BR BKN008 OVC012
     FM111300 15011G18KT 3/4SM -SN BR SCT004 OVC007
      TEMPO 1114/1118 1/2SM SN OVC004=

USA.gov is the U.S. government's official web portal to all federal, state and local government web resources and services.